Diamond Orchid — 9VNH4 — position and weather

sailwx.info

Track history (hours):
 
Tides and Currents Weather Stations Pressure Air Temp Water Temp Dewpoint Dewpoint Depression Visibility Wind Speed Wind Dir Waves Ship Positions

Diamond Orchid

Last reported at 2016-Nov-17 11:33 UTC. Time now 2016-Dec-02 20:11 UTC.
Position N 31°16' E 121°45'.
Warning: this ship's position is 15 days out of date.

Length 144 m; draft 5.5 m.

Type: Tanker. MMSI: 565789000.

Date/timePositionNaut miles runAvg speedWind from/ knotsBaromVisibWave heightAir tempDewpointWater temp
2016-Nov-17 11:33N 31°16' E 121°45'3411.4
2016-Nov-17 08:33N 31°38' E 121°15'46 3.4
2016-Nov-16 19:06N 31°58' E 120°26'0 0.0
2016-Nov-16 08:30N 31°58' E 120°26'0 0.0
2016-Nov-16 06:24N 31°58' E 120°26'6 3.5
2016-Nov-16 04:33N 32°01' E 120°34'18 8.6
2016-Nov-16 02:30N 31°55' E 120°53'9 9.7
2016-Nov-16 01:33N 31°47' E 120°59'22 5.6
2016-Nov-15 21:32N 31°34' E 121°20'0 0.1
2016-Nov-15 19:32N 31°34' E 121°20'0 0.0
2016-Nov-15 18:29N 31°34' E 121°20'0 0.0
2016-Nov-15 13:32N 31°34' E 121°20'0 0.1
2016-Nov-15 12:32N 31°34' E 121°21'0 0.0
2016-Nov-15 11:32N 31°34' E 121°21'0 0.1
2016-Nov-15 10:32N 31°34' E 121°20'0 0.0
2016-Nov-15 07:33N 31°34' E 121°20'9 8.7
2016-Nov-15 06:33N 31°28' E 121°28'5 7.1
2016-Nov-15 05:53N 31°25' E 121°32'117 4.8
2016-Nov-14 05:29N 29°40' E 122°32'46 2.2
2016-Nov-13 08:20N 29°59' E 121°45'23 8.1
2016-Nov-13 05:33N 29°55' E 122°10'16 8.1
2016-Nov-13 03:33N 29°45' E 122°25'2 0.4
2016-Nov-12 23:30N 29°46' E 122°27'0 0.0
2016-Nov-12 21:30N 29°46' E 122°27'0 0.1
2016-Nov-12 19:30N 29°46' E 122°27'0 0.1
2016-Nov-12 17:30N 29°46' E 122°27'0 0.1
2016-Nov-12 16:30N 29°46' E 122°27'0 0.1
2016-Nov-12 15:30N 29°46' E 122°27'0 0.0
2016-Nov-12 14:30N 29°46' E 122°27'0 0.1
2016-Nov-12 13:30N 29°46' E 122°27'0 0.1
2016-Nov-12 12:30N 29°46' E 122°27'0 0.0
2016-Nov-12 11:24N 29°46' E 122°27'0 0.1
2016-Nov-12 09:30N 29°46' E 122°27'0 0.1
2016-Nov-12 06:30N 29°46' E 122°27'0 0.0
2016-Nov-12 03:30N 29°46' E 122°27'0 0.1
2016-Nov-12 02:30N 29°46' E 122°27'0 0.1
2016-Nov-12 00:30N 29°46' E 122°27'0 0.1
2016-Nov-11 23:30N 29°46' E 122°27'0 0.1
2016-Nov-11 19:18N 29°46' E 122°27'0 0.0
2016-Nov-11 15:24N 29°46' E 122°27'0 0.0
2016-Nov-11 14:24N 29°46' E 122°27'0 0.0
2016-Nov-11 10:33N 29°46' E 122°27'7 6.5
2016-Nov-11 09:33N 29°41' E 122°33'43610.9
2016-Nov-09 17:33N 22°47' E 119°60'19 0.5
2016-Nov-08 06:32N 22°34' E 120°14'0 0.0
2016-Nov-08 04:32N 22°34' E 120°14'0 0.0
2016-Nov-08 00:32N 22°34' E 120°14'0 0.1
2016-Nov-07 23:32N 22°34' E 120°14'0 0.0
2016-Nov-07 19:33N 22°34' E 120°14'  
Track history (hours):
 
Tides and Currents Weather Stations Pressure Air Temp Water Temp Dewpoint Dewpoint Depression Visibility Wind Speed Wind Dir Waves Ship Positions

Diamond Orchid

Last reported at 2016-Nov-17 11:33 UTC. Time now 2016-Dec-02 20:11 UTC.
Position N 31°16' E 121°45'.
Warning: this ship's position is 15 days out of date.

Length 144 m; draft 5.5 m.

Type: Tanker. MMSI: 565789000.

Date/timePositionNaut miles runAvg speedWind from/ knotsBaromVisibWave heightAir tempDewpointWater temp
2016-Nov-17 11:33N 31°16' E 121°45'3411.4
2016-Nov-17 08:33N 31°38' E 121°15'46 3.4
2016-Nov-16 19:06N 31°58' E 120°26'0 0.0
2016-Nov-16 08:30N 31°58' E 120°26'0 0.0
2016-Nov-16 06:24N 31°58' E 120°26'6 3.5
2016-Nov-16 04:33N 32°01' E 120°34'18 8.6
2016-Nov-16 02:30N 31°55' E 120°53'9 9.7
2016-Nov-16 01:33N 31°47' E 120°59'22 5.6
2016-Nov-15 21:32N 31°34' E 121°20'0 0.1
2016-Nov-15 19:32N 31°34' E 121°20'0 0.0
2016-Nov-15 18:29N 31°34' E 121°20'0 0.0
2016-Nov-15 13:32N 31°34' E 121°20'0 0.1
2016-Nov-15 12:32N 31°34' E 121°21'0 0.0
2016-Nov-15 11:32N 31°34' E 121°21'0 0.1
2016-Nov-15 10:32N 31°34' E 121°20'0 0.0
2016-Nov-15 07:33N 31°34' E 121°20'9 8.7
2016-Nov-15 06:33N 31°28' E 121°28'5 7.1
2016-Nov-15 05:53N 31°25' E 121°32'117 4.8
2016-Nov-14 05:29N 29°40' E 122°32'46 2.2
2016-Nov-13 08:20N 29°59' E 121°45'23 8.1
2016-Nov-13 05:33N 29°55' E 122°10'16 8.1
2016-Nov-13 03:33N 29°45' E 122°25'2 0.4
2016-Nov-12 23:30N 29°46' E 122°27'0 0.0
2016-Nov-12 21:30N 29°46' E 122°27'0 0.1
2016-Nov-12 19:30N 29°46' E 122°27'0 0.1
2016-Nov-12 17:30N 29°46' E 122°27'0 0.1
2016-Nov-12 16:30N 29°46' E 122°27'0 0.1
2016-Nov-12 15:30N 29°46' E 122°27'0 0.0
2016-Nov-12 14:30N 29°46' E 122°27'0 0.1
2016-Nov-12 13:30N 29°46' E 122°27'0 0.1
2016-Nov-12 12:30N 29°46' E 122°27'0 0.0
2016-Nov-12 11:24N 29°46' E 122°27'0 0.1
2016-Nov-12 09:30N 29°46' E 122°27'0 0.1
2016-Nov-12 06:30N 29°46' E 122°27'0 0.0
2016-Nov-12 03:30N 29°46' E 122°27'0 0.1
2016-Nov-12 02:30N 29°46' E 122°27'0 0.1
2016-Nov-12 00:30N 29°46' E 122°27'0 0.1
2016-Nov-11 23:30N 29°46' E 122°27'0 0.1
2016-Nov-11 19:18N 29°46' E 122°27'0 0.0
2016-Nov-11 15:24N 29°46' E 122°27'0 0.0
2016-Nov-11 14:24N 29°46' E 122°27'0 0.0
2016-Nov-11 10:33N 29°46' E 122°27'7 6.5
2016-Nov-11 09:33N 29°41' E 122°33'43610.9
2016-Nov-09 17:33N 22°47' E 119°60'19 0.5
2016-Nov-08 06:32N 22°34' E 120°14'0 0.0
2016-Nov-08 04:32N 22°34' E 120°14'0 0.0
2016-Nov-08 00:32N 22°34' E 120°14'0 0.1
2016-Nov-07 23:32N 22°34' E 120°14'0 0.0
2016-Nov-07 19:33N 22°34' E 120°14'  

Dump ship's entire track history